Terminal Aerodrome Forecast
Issued by NWS Wilmington, NC

Home | Current Version | Previous Version | Text Only | Print | Product List | Glossary On
Versions: 1 2 3 4 5 6 7 8 9 10 11 12 13
515
FTUS42 KILM 022320
TAFLBT
TAF
KLBT 022320Z 0300/0324 25003KT P6SM SCT250
     FM030500 32005KT P6SM SCT250
     FM031400 36008KT P6SM FEW140 SCT200=

USA.gov is the U.S. government's official web portal to all federal, state and local government web resources and services.